sensor_id;sensor_type;location;lat;lon;timestamp;temperature;humidity
65122;HTU21D;51701;45.036;38.924;2022-08-01T00:00:25;25.20;65.34
65122;HTU21D;51701;45.036;38.924;2022-08-01T00:02:51;25.20;65.11
65122;HTU21D;51701;45.036;38.924;2022-08-01T00:05:17;25.22;65.02
65122;HTU21D;51701;45.036;38.924;2022-08-01T00:07:43;25.23;65.15
65122;HTU21D;51701;45.036;38.924;2022-08-01T00:10:10;25.19;65.26
65122;HTU21D;51701;45.036;38.924;2022-08-01T00:12:36;25.16;65.32
65122;HTU21D;51701;45.036;38.924;2022-08-01T00:15:02;25.16;65.20
65122;HTU21D;51701;45.036;38.924;2022-08-01T00:17:28;25.13;65.24
65122;HTU21D;51701;45.036;38.924;2022-08-01T00:19:53;25.07;65.32
65122;HTU21D;51701;45.036;38.924;2022-08-01T00:22:19;24.99;65.55
65122;HTU21D;51701;45.036;38.924;2022-08-01T00:24:45;24.92;65.72
65122;HTU21D;51701;45.036;38.924;2022-08-01T00:27:10;0.00;64.79
65122;HTU21D;51701;45.036;38.924;2022-08-01T00:29:36;24.70;66.20
65122;HTU21D;51701;45.036;38.924;2022-08-01T00:32:02;24.65;66.65
65122;HTU21D;51701;45.036;38.924;2022-08-01T00:34:28;24.62;67.07
65122;HTU21D;51701;45.036;38.924;2022-08-01T00:36:53;24.54;66.62
65122;HTU21D;51701;45.036;38.924;2022-08-01T00:39:19;24.53;67.57
65122;HTU21D;51701;45.036;38.924;2022-08-01T00:41:45;24.51;68.81
65122;HTU21D;51701;45.036;38.924;2022-08-01T00:44:10;24.50;68.91
65122;HTU21D;51701;45.036;38.924;2022-08-01T00:46:36;24.45;69.15
65122;HTU21D;51701;45.036;38.924;2022-08-01T00:49:02;24.41;68.87
65122;HTU21D;51701;45.036;38.924;2022-08-01T00:51:28;24.39;69.72
65122;HTU21D;51701;45.036;38.924;2022-08-01T00:53:54;0.00;69.73
65122;HTU21D;51701;45.036;38.924;2022-08-01T00:56:20;24.26;69.16
65122;HTU21D;51701;45.036;38.924;2022-08-01T00:58:47;24.20;69.13
65122;HTU21D;51701;45.036;38.924;2022-08-01T01:01:13;24.16;69.44
65122;HTU21D;51701;45.036;38.924;2022-08-01T01:03:38;24.04;68.50
65122;HTU21D;51701;45.036;38.924;2022-08-01T01:06:14;24.03;70.66
65122;HTU21D;51701;45.036;38.924;2022-08-01T01:08:46;24.05;70.86
65122;HTU21D;51701;45.036;38.924;2022-08-01T01:11:24;24.01;71.93
65122;HTU21D;51701;45.036;38.924;2022-08-01T01:13:52;24.04;72.26
65122;HTU21D;51701;45.036;38.924;2022-08-01T01:16:19;24.10;72.97
65122;HTU21D;51701;45.036;38.924;2022-08-01T01:18:47;0.00;71.30
65122;HTU21D;51701;45.036;38.924;2022-08-01T01:29:16;24.25;69.93
65122;HTU21D;51701;45.036;38.924;2022-08-01T01:31:44;0.00;71.26
65122;HTU21D;51701;45.036;38.924;2022-08-01T01:34:12;24.27;72.35
65122;HTU21D;51701;45.036;38.924;2022-08-01T01:36:39;24.29;73.91
65122;HTU21D;51701;45.036;38.924;2022-08-01T01:39:04;24.25;73.80
65122;HTU21D;51701;45.036;38.924;2022-08-01T01:41:32;24.25;73.31
65122;HTU21D;51701;45.036;38.924;2022-08-01T01:43:58;24.30;72.63
65122;HTU21D;51701;45.036;38.924;2022-08-01T01:46:26;24.31;71.68
65122;HTU21D;51701;45.036;38.924;2022-08-01T01:48:54;0.00;72.87
65122;HTU21D;51701;45.036;38.924;2022-08-01T01:51:21;24.33;73.27
65122;HTU21D;51701;45.036;38.924;2022-08-01T01:53:47;24.39;73.23
65122;HTU21D;51701;45.036;38.924;2022-08-01T01:56:14;0.00;71.70
65122;HTU21D;51701;45.036;38.924;2022-08-01T01:58:41;24.41;73.57
65122;HTU21D;51701;45.036;38.924;2022-08-01T02:01:08;24.45;74.12
65122;HTU21D;51701;45.036;38.924;2022-08-01T02:03:36;0.00;73.17
65122;HTU21D;51701;45.036;38.924;2022-08-01T02:06:03;24.47;73.77
65122;HTU21D;51701;45.036;38.924;2022-08-01T02:08:29;24.49;75.02
65122;HTU21D;51701;45.036;38.924;2022-08-01T02:10:56;24.50;75.54
65122;HTU21D;51701;45.036;38.924;2022-08-01T02:13:41;24.53;80.08
65122;HTU21D;51701;45.036;38.924;2022-08-01T02:16:07;24.53;81.04
65122;HTU21D;51701;45.036;38.924;2022-08-01T02:18:36;24.56;81.43
65122;HTU21D;51701;45.036;38.924;2022-08-01T02:21:03;24.57;82.62
65122;HTU21D;51701;45.036;38.924;2022-08-01T02:23:31;0.00;84.04
65122;HTU21D;51701;45.036;38.924;2022-08-01T02:25:58;24.61;85.30
65122;HTU21D;51701;45.036;38.924;2022-08-01T02:28:29;24.68;87.08
65122;HTU21D;51701;45.036;38.924;2022-08-01T02:30:56;0.00;86.35
65122;HTU21D;51701;45.036;38.924;2022-08-01T02:33:38;0.00;87.09
65122;HTU21D;51701;45.036;38.924;2022-08-01T02:36:04;24.90;86.12
65122;HTU21D;51701;45.036;38.924;2022-08-01T02:38:32;0.00;84.64
65122;HTU21D;51701;45.036;38.924;2022-08-01T02:40:59;25.12;82.70
65122;HTU21D;51701;45.036;38.924;2022-08-01T02:43:27;25.28;81.86
65122;HTU21D;51701;45.036;38.924;2022-08-01T02:45:54;25.43;81.55
65122;HTU21D;51701;45.036;38.924;2022-08-01T02:48:21;25.53;79.83
65122;HTU21D;51701;45.036;38.924;2022-08-01T02:50:48;0.00;77.09
65122;HTU21D;51701;45.036;38.924;2022-08-01T02:53:16;25.95;78.33
65122;HTU21D;51701;45.036;38.924;2022-08-01T02:55:42;26.11;76.18
65122;HTU21D;51701;45.036;38.924;2022-08-01T02:58:10;0.00;75.72
65122;HTU21D;51701;45.036;38.924;2022-08-01T03:00:37;26.52;73.93
65122;HTU21D;51701;45.036;38.924;2022-08-01T03:03:05;26.57;74.48
65122;HTU21D;51701;45.036;38.924;2022-08-01T03:05:32;26.71;73.43
65122;HTU21D;51701;45.036;38.924;2022-08-01T03:07:58;27.00;72.77
65122;HTU21D;51701;45.036;38.924;2022-08-01T03:10:24;27.20;70.52
65122;HTU21D;51701;45.036;38.924;2022-08-01T03:12:52;27.23;70.73
65122;HTU21D;51701;45.036;38.924;2022-08-01T03:15:18;0.00;70.63
65122;HTU21D;51701;45.036;38.924;2022-08-01T03:17:45;27.80;68.79
65122;HTU21D;51701;45.036;38.924;2022-08-01T03:20:13;28.01;66.28
65122;HTU21D;51701;45.036;38.924;2022-08-01T03:22:40;28.12;65.34
65122;HTU21D;51701;45.036;38.924;2022-08-01T03:25:06;28.24;65.75
65122;HTU21D;51701;45.036;38.924;2022-08-01T03:27:33;28.69;63.91
65122;HTU21D;51701;45.036;38.924;2022-08-01T03:30:01;28.78;62.47
65122;HTU21D;51701;45.036;38.924;2022-08-01T03:32:27;28.80;62.28
65122;HTU21D;51701;45.036;38.924;2022-08-01T03:34:53;29.02;63.34
65122;HTU21D;51701;45.036;38.924;2022-08-01T03:37:21;0.00;61.44
65122;HTU21D;51701;45.036;38.924;2022-08-01T03:42:23;29.57;59.81
65122;HTU21D;51701;45.036;38.924;2022-08-01T03:44:52;30.00;60.08
65122;HTU21D;51701;45.036;38.924;2022-08-01T03:47:19;30.32;56.73
65122;HTU21D;51701;45.036;38.924;2022-08-01T03:49:47;30.33;57.68
65122;HTU21D;51701;45.036;38.924;2022-08-01T03:52:14;30.46;57.87
65122;HTU21D;51701;45.036;38.924;2022-08-01T03:54:41;0.00;54.95
65122;HTU21D;51701;45.036;38.924;2022-08-01T03:57:07;30.90;54.72
65122;HTU21D;51701;45.036;38.924;2022-08-01T03:59:34;30.98;55.06
65122;HTU21D;51701;45.036;38.924;2022-08-01T04:02:02;31.29;56.14
65122;HTU21D;51701;45.036;38.924;2022-08-01T04:04:28;31.92;54.43
65122;HTU21D;51701;45.036;38.924;2022-08-01T04:06:54;31.73;53.76
65122;HTU21D;51701;45.036;38.924;2022-08-01T04:09:20;31.64;54.39
65122;HTU21D;51701;45.036;38.924;2022-08-01T04:11:47;32.15;53.84
65122;HTU21D;51701;45.036;38.924;2022-08-01T04:14:13;32.33;52.59
65122;HTU21D;51701;45.036;38.924;2022-08-01T04:16:39;32.23;52.76
65122;HTU21D;51701;45.036;38.924;2022-08-01T04:19:05;32.30;53.01
65122;HTU21D;51701;45.036;38.924;2022-08-01T04:21:34;0.00;50.66
65122;HTU21D;51701;45.036;38.924;2022-08-01T04:24:01;32.75;51.66
65122;HTU21D;51701;45.036;38.924;2022-08-01T04:26:31;0.00;51.21
65122;HTU21D;51701;45.036;38.924;2022-08-01T04:28:57;33.43;50.57
65122;HTU21D;51701;45.036;38.924;2022-08-01T04:31:24;34.24;49.45
65122;HTU21D;51701;45.036;38.924;2022-08-01T04:33:51;34.83;48.40
65122;HTU21D;51701;45.036;38.924;2022-08-01T04:36:19;35.15;48.05
65122;HTU21D;51701;45.036;38.924;2022-08-01T04:38:48;35.37;47.80
65122;HTU21D;51701;45.036;38.924;2022-08-01T04:41:15;35.53;47.12
65122;HTU21D;51701;45.036;38.924;2022-08-01T04:43:42;35.42;47.89
65122;HTU21D;51701;45.036;38.924;2022-08-01T04:46:08;35.38;47.70
65122;HTU21D;51701;45.036;38.924;2022-08-01T04:48:37;35.65;47.62
65122;HTU21D;51701;45.036;38.924;2022-08-01T04:51:03;36.26;45.96
65122;HTU21D;51701;45.036;38.924;2022-08-01T04:53:29;36.69;46.45
65122;HTU21D;51701;45.036;38.924;2022-08-01T04:55:57;37.20;45.25
65122;HTU21D;51701;45.036;38.924;2022-08-01T04:58:23;37.41;45.38
65122;HTU21D;51701;45.036;38.924;2022-08-01T05:00:49;37.54;44.74
65122;HTU21D;51701;45.036;38.924;2022-08-01T05:03:15;37.59;44.19
65122;HTU21D;51701;45.036;38.924;2022-08-01T05:05:41;37.35;45.05
65122;HTU21D;51701;45.036;38.924;2022-08-01T05:08:07;37.47;44.91
65122;HTU21D;51701;45.036;38.924;2022-08-01T05:10:32;37.42;44.69
65122;HTU21D;51701;45.036;38.924;2022-08-01T05:12:58;37.60;44.79
65122;HTU21D;51701;45.036;38.924;2022-08-01T05:15:24;38.24;43.82
65122;HTU21D;51701;45.036;38.924;2022-08-01T05:17:50;38.90;43.43
65122;HTU21D;51701;45.036;38.924;2022-08-01T05:20:16;39.35;41.96
65122;HTU21D;51701;45.036;38.924;2022-08-01T05:22:42;39.02;40.63
65122;HTU21D;51701;45.036;38.924;2022-08-01T05:25:08;38.74;42.35
65122;HTU21D;51701;45.036;38.924;2022-08-01T05:27:33;38.90;42.71
65122;HTU21D;51701;45.036;38.924;2022-08-01T05:30:07;39.58;42.00
65122;HTU21D;51701;45.036;38.924;2022-08-01T05:32:33;40.12;41.12
65122;HTU21D;51701;45.036;38.924;2022-08-01T05:34:59;40.53;40.33
65122;HTU21D;51701;45.036;38.924;2022-08-01T05:37:25;40.52;39.23
65122;HTU21D;51701;45.036;38.924;2022-08-01T05:39:51;40.29;40.14
65122;HTU21D;51701;45.036;38.924;2022-08-01T05:42:16;40.28;39.10
65122;HTU21D;51701;45.036;38.924;2022-08-01T05:44:42;39.94;40.13
65122;HTU21D;51701;45.036;38.924;2022-08-01T05:47:08;39.85;40.43
65122;HTU21D;51701;45.036;38.924;2022-08-01T05:49:34;40.04;40.10
65122;HTU21D;51701;45.036;38.924;2022-08-01T05:51:59;40.66;39.94
65122;HTU21D;51701;45.036;38.924;2022-08-01T05:54:27;41.28;39.42
65122;HTU21D;51701;45.036;38.924;2022-08-01T05:56:53;40.98;38.46
65122;HTU21D;51701;45.036;38.924;2022-08-01T05:59:19;40.61;39.08
65122;HTU21D;51701;45.036;38.924;2022-08-01T06:01:44;40.78;39.35
65122;HTU21D;51701;45.036;38.924;2022-08-01T06:04:10;40.91;39.03
65122;HTU21D;51701;45.036;38.924;2022-08-01T06:06:36;41.19;38.19
65122;HTU21D;51701;45.036;38.924;2022-08-01T06:09:01;41.33;38.57
65122;HTU21D;51701;45.036;38.924;2022-08-01T06:11:27;41.56;38.49
65122;HTU21D;51701;45.036;38.924;2022-08-01T06:13:53;41.75;37.90
65122;HTU21D;51701;45.036;38.924;2022-08-01T06:16:19;41.87;38.08
65122;HTU21D;51701;45.036;38.924;2022-08-01T06:18:44;42.41;37.86
65122;HTU21D;51701;45.036;38.924;2022-08-01T06:21:10;43.06;37.18
65122;HTU21D;51701;45.036;38.924;2022-08-01T06:23:36;43.55;36.84
65122;HTU21D;51701;45.036;38.924;2022-08-01T06:26:02;43.86;36.38
65122;HTU21D;51701;45.036;38.924;2022-08-01T06:28:28;44.13;36.37
65122;HTU21D;51701;45.036;38.924;2022-08-01T06:30:54;44.37;35.50
65122;HTU21D;51701;45.036;38.924;2022-08-01T06:33:20;44.56;35.84
65122;HTU21D;51701;45.036;38.924;2022-08-01T06:35:46;44.65;35.87
65122;HTU21D;51701;45.036;38.924;2022-08-01T06:38:12;44.64;35.85
65122;HTU21D;51701;45.036;38.924;2022-08-01T06:40:38;44.80;36.01
65122;HTU21D;51701;45.036;38.924;2022-08-01T06:43:03;44.85;35.83
65122;HTU21D;51701;45.036;38.924;2022-08-01T06:45:29;44.98;35.93
65122;HTU21D;51701;45.036;38.924;2022-08-01T06:47:55;45.12;35.89
65122;HTU21D;51701;45.036;38.924;2022-08-01T06:50:21;45.47;35.59
65122;HTU21D;51701;45.036;38.924;2022-08-01T06:52:46;45.32;35.75
65122;HTU21D;51701;45.036;38.924;2022-08-01T06:55:12;45.29;35.96
65122;HTU21D;51701;45.036;38.924;2022-08-01T06:57:45;45.35;34.71
65122;HTU21D;51701;45.036;38.924;2022-08-01T07:00:11;45.14;34.89
65122;HTU21D;51701;45.036;38.924;2022-08-01T07:02:38;44.80;33.02
65122;HTU21D;51701;45.036;38.924;2022-08-01T07:05:04;43.02;35.95
65122;HTU21D;51701;45.036;38.924;2022-08-01T07:07:30;41.48;38.32
65122;HTU21D;51701;45.036;38.924;2022-08-01T07:09:56;40.61;39.76
65122;HTU21D;51701;45.036;38.924;2022-08-01T07:12:22;39.76;41.21
65122;HTU21D;51701;45.036;38.924;2022-08-01T07:14:47;39.29;41.91
65122;HTU21D;51701;45.036;38.924;2022-08-01T07:17:13;39.02;42.98
65122;HTU21D;51701;45.036;38.924;2022-08-01T07:19:39;38.78;43.18
65122;HTU21D;51701;45.036;38.924;2022-08-01T07:22:05;38.63;43.32
65122;HTU21D;51701;45.036;38.924;2022-08-01T07:24:30;38.33;44.34
65122;HTU21D;51701;45.036;38.924;2022-08-01T07:26:57;38.23;44.99
65122;HTU21D;51701;45.036;38.924;2022-08-01T07:29:23;38.32;44.53
65122;HTU21D;51701;45.036;38.924;2022-08-01T07:31:50;38.31;44.67
65122;HTU21D;51701;45.036;38.924;2022-08-01T07:34:16;38.38;44.48
65122;HTU21D;51701;45.036;38.924;2022-08-01T07:36:42;38.45;44.18
65122;HTU21D;51701;45.036;38.924;2022-08-01T07:39:08;37.99;45.61
65122;HTU21D;51701;45.036;38.924;2022-08-01T07:41:33;37.74;45.87
65122;HTU21D;51701;45.036;38.924;2022-08-01T07:43:59;37.71;46.09
65122;HTU21D;51701;45.036;38.924;2022-08-01T07:46:25;37.93;45.53
65122;HTU21D;51701;45.036;38.924;2022-08-01T07:48:50;37.97;45.53
65122;HTU21D;51701;45.036;38.924;2022-08-01T07:51:16;37.91;45.66
65122;HTU21D;51701;45.036;38.924;2022-08-01T07:53:42;37.84;45.63
65122;HTU21D;51701;45.036;38.924;2022-08-01T07:56:07;37.75;46.24
65122;HTU21D;51701;45.036;38.924;2022-08-01T07:58:33;37.81;45.90
65122;HTU21D;51701;45.036;38.924;2022-08-01T08:00:59;37.76;46.13
65122;HTU21D;51701;45.036;38.924;2022-08-01T08:03:25;37.81;45.86
65122;HTU21D;51701;45.036;38.924;2022-08-01T08:05:52;37.90;45.70
65122;HTU21D;51701;45.036;38.924;2022-08-01T08:08:17;37.77;46.00
65122;HTU21D;51701;45.036;38.924;2022-08-01T08:10:43;37.52;46.40
65122;HTU21D;51701;45.036;38.924;2022-08-01T08:13:09;37.72;46.21
65122;HTU21D;51701;45.036;38.924;2022-08-01T08:15:35;37.80;46.03
65122;HTU21D;51701;45.036;38.924;2022-08-01T08:18:02;37.93;45.64
65122;HTU21D;51701;45.036;38.924;2022-08-01T08:20:28;37.90;45.77
65122;HTU21D;51701;45.036;38.924;2022-08-01T08:22:55;37.90;45.76
65122;HTU21D;51701;45.036;38.924;2022-08-01T08:25:22;37.93;45.86
65122;HTU21D;51701;45.036;38.924;2022-08-01T08:27:48;37.93;45.80
65122;HTU21D;51701;45.036;38.924;2022-08-01T08:30:14;37.82;45.66
65122;HTU21D;51701;45.036;38.924;2022-08-01T08:32:40;37.70;45.77
65122;HTU21D;51701;45.036;38.924;2022-08-01T08:35:06;37.57;46.05
65122;HTU21D;51701;45.036;38.924;2022-08-01T08:37:32;36.47;48.47
65122;HTU21D;51701;45.036;38.924;2022-08-01T08:39:58;35.27;51.21
65122;HTU21D;51701;45.036;38.924;2022-08-01T08:42:24;34.52;53.01
65122;HTU21D;51701;45.036;38.924;2022-08-01T08:44:50;33.87;55.06
65122;HTU21D;51701;45.036;38.924;2022-08-01T08:47:16;33.45;56.27
65122;HTU21D;51701;45.036;38.924;2022-08-01T08:49:43;33.11;55.43
65122;HTU21D;51701;45.036;38.924;2022-08-01T08:52:09;33.00;56.45
65122;HTU21D;51701;45.036;38.924;2022-08-01T08:54:35;33.01;57.26
65122;HTU21D;51701;45.036;38.924;2022-08-01T08:57:02;32.97;57.48
65122;HTU21D;51701;45.036;38.924;2022-08-01T08:59:28;32.96;56.45
65122;HTU21D;51701;45.036;38.924;2022-08-01T09:01:54;32.98;56.55
65122;HTU21D;51701;45.036;38.924;2022-08-01T09:04:23;32.85;56.56
65122;HTU21D;51701;45.036;38.924;2022-08-01T09:06:49;32.86;56.62
65122;HTU21D;51701;45.036;38.924;2022-08-01T09:09:15;32.83;57.22
65122;HTU21D;51701;45.036;38.924;2022-08-01T09:11:41;32.87;56.97
65122;HTU21D;51701;45.036;38.924;2022-08-01T09:14:17;32.98;56.92
65122;HTU21D;51701;45.036;38.924;2022-08-01T09:17:06;32.94;56.97
65122;HTU21D;51701;45.036;38.924;2022-08-01T09:19:35;32.90;56.86
65122;HTU21D;51701;45.036;38.924;2022-08-01T09:22:02;32.90;56.84
65122;HTU21D;51701;45.036;38.924;2022-08-01T09:24:29;32.98;56.54
65122;HTU21D;51701;45.036;38.924;2022-08-01T09:26:55;33.18;55.65
65122;HTU21D;51701;45.036;38.924;2022-08-01T09:29:23;33.21;55.65
65122;HTU21D;51701;45.036;38.924;2022-08-01T09:31:49;33.22;56.11
65122;HTU21D;51701;45.036;38.924;2022-08-01T09:34:15;33.40;55.42
65122;HTU21D;51701;45.036;38.924;2022-08-01T09:39:13;33.43;54.75
65122;HTU21D;51701;45.036;38.924;2022-08-01T09:41:39;33.41;54.91
65122;HTU21D;51701;45.036;38.924;2022-08-01T09:44:05;33.48;53.85
65122;HTU21D;51701;45.036;38.924;2022-08-01T09:46:31;33.28;54.17
65122;HTU21D;51701;45.036;38.924;2022-08-01T09:49:03;33.20;54.66
65122;HTU21D;51701;45.036;38.924;2022-08-01T09:51:37;33.35;54.72
65122;HTU21D;51701;45.036;38.924;2022-08-01T09:54:04;33.32;55.28
65122;HTU21D;51701;45.036;38.924;2022-08-01T09:56:37;33.34;54.62
65122;HTU21D;51701;45.036;38.924;2022-08-01T09:59:03;33.34;54.60
65122;HTU21D;51701;45.036;38.924;2022-08-01T10:01:41;33.35;54.34
65122;HTU21D;51701;45.036;38.924;2022-08-01T10:04:11;33.33;54.51
65122;HTU21D;51701;45.036;38.924;2022-08-01T10:06:38;33.31;54.49
65122;HTU21D;51701;45.036;38.924;2022-08-01T10:09:04;33.33;53.89
65122;HTU21D;51701;45.036;38.924;2022-08-01T10:11:30;33.23;54.19
65122;HTU21D;51701;45.036;38.924;2022-08-01T10:13:57;33.18;53.74
65122;HTU21D;51701;45.036;38.924;2022-08-01T10:16:24;33.19;54.12
65122;HTU21D;51701;45.036;38.924;2022-08-01T10:18:50;33.09;54.30
65122;HTU21D;51701;45.036;38.924;2022-08-01T10:21:16;33.04;54.69
65122;HTU21D;51701;45.036;38.924;2022-08-01T10:23:43;33.00;54.53
65122;HTU21D;51701;45.036;38.924;2022-08-01T10:26:10;33.13;53.13
65122;HTU21D;51701;45.036;38.924;2022-08-01T10:28:36;33.13;54.73
65122;HTU21D;51701;45.036;38.924;2022-08-01T10:31:02;33.14;54.46
65122;HTU21D;51701;45.036;38.924;2022-08-01T10:33:28;33.21;54.21
65122;HTU21D;51701;45.036;38.924;2022-08-01T10:35:54;33.25;53.61
65122;HTU21D;51701;45.036;38.924;2022-08-01T10:38:20;33.20;53.30
65122;HTU21D;51701;45.036;38.924;2022-08-01T10:40:46;33.20;53.75
65122;HTU21D;51701;45.036;38.924;2022-08-01T10:43:12;33.32;53.54
65122;HTU21D;51701;45.036;38.924;2022-08-01T10:45:40;33.32;53.47
65122;HTU21D;51701;45.036;38.924;2022-08-01T10:50:52;0.00;52.08
65122;HTU21D;51701;45.036;38.924;2022-08-01T10:53:22;33.48;49.66
65122;HTU21D;51701;45.036;38.924;2022-08-01T10:58:19;33.53;51.51
65122;HTU21D;51701;45.036;38.924;2022-08-01T11:00:45;33.64;51.33
65122;HTU21D;51701;45.036;38.924;2022-08-01T11:03:10;33.63;52.71
65122;HTU21D;51701;45.036;38.924;2022-08-01T11:05:36;33.60;52.07
65122;HTU21D;51701;45.036;38.924;2022-08-01T11:11:00;33.79;50.92
65122;HTU21D;51701;45.036;38.924;2022-08-01T11:16:34;33.92;50.72
65122;HTU21D;51701;45.036;38.924;2022-08-01T11:19:00;33.87;50.50
65122;HTU21D;51701;45.036;38.924;2022-08-01T11:24:11;33.71;50.25
65122;HTU21D;51701;45.036;38.924;2022-08-01T11:26:37;33.63;49.66
65122;HTU21D;51701;45.036;38.924;2022-08-01T11:29:16;33.61;50.08
65122;HTU21D;51701;45.036;38.924;2022-08-01T11:31:42;33.60;50.47
65122;HTU21D;51701;45.036;38.924;2022-08-01T11:34:08;33.60;50.61
65122;HTU21D;51701;45.036;38.924;2022-08-01T11:36:34;33.47;50.99
65122;HTU21D;51701;45.036;38.924;2022-08-01T11:41:26;33.04;51.55
65122;HTU21D;51701;45.036;38.924;2022-08-01T11:51:59;32.70;53.33
65122;HTU21D;51701;45.036;38.924;2022-08-01T11:54:26;32.58;53.29
65122;HTU21D;51701;45.036;38.924;2022-08-01T11:56:59;0.00;53.29
65122;HTU21D;51701;45.036;38.924;2022-08-01T11:59:25;32.38;54.22
65122;HTU21D;51701;45.036;38.924;2022-08-01T12:01:51;32.29;54.46
65122;HTU21D;51701;45.036;38.924;2022-08-01T12:04:17;32.23;54.80
65122;HTU21D;51701;45.036;38.924;2022-08-01T12:06:43;32.19;54.26
65122;HTU21D;51701;45.036;38.924;2022-08-01T12:09:16;0.00;54.77
65122;HTU21D;51701;45.036;38.924;2022-08-01T12:11:42;32.11;55.30
65122;HTU21D;51701;45.036;38.924;2022-08-01T12:14:08;0.00;54.92
65122;HTU21D;51701;45.036;38.924;2022-08-01T12:16:34;32.10;55.25
65122;HTU21D;51701;45.036;38.924;2022-08-01T12:18:59;32.04;55.98
65122;HTU21D;51701;45.036;38.924;2022-08-01T12:21:25;31.98;55.87
65122;HTU21D;51701;45.036;38.924;2022-08-01T12:24:01;0.00;55.59
65122;HTU21D;51701;45.036;38.924;2022-08-01T12:26:40;0.00;56.36
65122;HTU21D;51701;45.036;38.924;2022-08-01T12:29:05;31.84;56.41
65122;HTU21D;51701;45.036;38.924;2022-08-01T12:31:34;31.78;56.10
65122;HTU21D;51701;45.036;38.924;2022-08-01T12:37:04;31.71;57.39
65122;HTU21D;51701;45.036;38.924;2022-08-01T12:39:32;31.66;56.68
65122;HTU21D;51701;45.036;38.924;2022-08-01T12:41:58;31.63;57.31
65122;HTU21D;51701;45.036;38.924;2022-08-01T12:44:25;31.63;57.06
65122;HTU21D;51701;45.036;38.924;2022-08-01T12:46:51;31.68;56.88
65122;HTU21D;51701;45.036;38.924;2022-08-01T12:49:17;31.70;56.48
65122;HTU21D;51701;45.036;38.924;2022-08-01T12:51:42;31.65;56.73
65122;HTU21D;51701;45.036;38.924;2022-08-01T12:54:08;31.67;56.99
65122;HTU21D;51701;45.036;38.924;2022-08-01T12:56:35;0.00;58.61
65122;HTU21D;51701;45.036;38.924;2022-08-01T12:59:01;31.38;62.21
65122;HTU21D;51701;45.036;38.924;2022-08-01T13:01:28;31.06;63.85
65122;HTU21D;51701;45.036;38.924;2022-08-01T13:04:00;30.67;64.12
65122;HTU21D;51701;45.036;38.924;2022-08-01T13:06:28;30.39;63.10
65122;HTU21D;51701;45.036;38.924;2022-08-01T13:08:54;30.31;65.40
65122;HTU21D;51701;45.036;38.924;2022-08-01T13:11:20;30.22;65.81
65122;HTU21D;51701;45.036;38.924;2022-08-01T13:13:46;30.04;63.73
65122;HTU21D;51701;45.036;38.924;2022-08-01T13:16:12;30.01;65.08
65122;HTU21D;51701;45.036;38.924;2022-08-01T13:18:39;29.95;66.14
65122;HTU21D;51701;45.036;38.924;2022-08-01T13:21:17;29.86;65.78
65122;HTU21D;51701;45.036;38.924;2022-08-01T13:29:06;29.68;65.54
65122;HTU21D;51701;45.036;38.924;2022-08-01T13:31:33;29.63;64.74
65122;HTU21D;51701;45.036;38.924;2022-08-01T13:33:59;29.57;66.50
65122;HTU21D;51701;45.036;38.924;2022-08-01T13:36:25;29.56;67.23
65122;HTU21D;51701;45.036;38.924;2022-08-01T13:38:54;29.52;67.41
65122;HTU21D;51701;45.036;38.924;2022-08-01T13:41:39;0.00;68.11
65122;HTU21D;51701;45.036;38.924;2022-08-01T13:44:04;29.44;68.31
65122;HTU21D;51701;45.036;38.924;2022-08-01T13:46:30;29.46;68.68
65122;HTU21D;51701;45.036;38.924;2022-08-01T13:48:56;0.00;66.94
65122;HTU21D;51701;45.036;38.924;2022-08-01T13:51:22;29.42;67.72
65122;HTU21D;51701;45.036;38.924;2022-08-01T13:53:48;29.33;68.85
65122;HTU21D;51701;45.036;38.924;2022-08-01T13:56:14;29.17;67.55
65122;HTU21D;51701;45.036;38.924;2022-08-01T13:58:42;29.04;68.16
65122;HTU21D;51701;45.036;38.924;2022-08-01T14:01:08;28.95;70.51
65122;HTU21D;51701;45.036;38.924;2022-08-01T14:03:34;28.45;71.81
65122;HTU21D;51701;45.036;38.924;2022-08-01T14:06:00;27.59;75.02
65122;HTU21D;51701;45.036;38.924;2022-08-01T14:08:26;0.00;79.84
65122;HTU21D;51701;45.036;38.924;2022-08-01T14:10:51;25.97;85.42
65122;HTU21D;51701;45.036;38.924;2022-08-01T14:13:19;24.87;88.75
65122;HTU21D;51701;45.036;38.924;2022-08-01T14:15:44;24.41;93.56
65122;HTU21D;51701;45.036;38.924;2022-08-01T14:18:10;23.96;95.20
65122;HTU21D;51701;45.036;38.924;2022-08-01T14:20:37;23.44;96.95
65122;HTU21D;51701;45.036;38.924;2022-08-01T14:23:03;22.99;95.48
65122;HTU21D;51701;45.036;38.924;2022-08-01T14:25:28;22.79;97.78
65122;HTU21D;51701;45.036;38.924;2022-08-01T14:27:54;22.63;97.13
65122;HTU21D;51701;45.036;38.924;2022-08-01T14:30:20;22.13;94.72
65122;HTU21D;51701;45.036;38.924;2022-08-01T14:32:46;0.00;99.33
65122;HTU21D;51701;45.036;38.924;2022-08-01T14:35:12;20.93;104.27
65122;HTU21D;51701;45.036;38.924;2022-08-01T14:37:38;20.70;105.68
65122;HTU21D;51701;45.036;38.924;2022-08-01T14:40:03;20.43;107.01
65122;HTU21D;51701;45.036;38.924;2022-08-01T14:42:33;20.22;107.92
65122;HTU21D;51701;45.036;38.924;2022-08-01T14:44:59;19.74;109.03
65122;HTU21D;51701;45.036;38.924;2022-08-01T14:47:24;19.97;110.20
65122;HTU21D;51701;45.036;38.924;2022-08-01T14:49:50;20.44;109.24
65122;HTU21D;51701;45.036;38.924;2022-08-01T14:52:16;20.65;109.67
65122;HTU21D;51701;45.036;38.924;2022-08-01T14:54:42;20.91;110.20
65122;HTU21D;51701;45.036;38.924;2022-08-01T14:57:08;21.39;110.90
65122;HTU21D;51701;45.036;38.924;2022-08-01T14:59:34;21.77;109.47
65122;HTU21D;51701;45.036;38.924;2022-08-01T15:02:00;22.08;109.04
65122;HTU21D;51701;45.036;38.924;2022-08-01T15:04:26;22.29;108.24
65122;HTU21D;51701;45.036;38.924;2022-08-01T15:06:51;0.00;108.18
65122;HTU21D;51701;45.036;38.924;2022-08-01T15:09:17;22.51;108.63
65122;HTU21D;51701;45.036;38.924;2022-08-01T15:11:43;22.69;108.69
65122;HTU21D;51701;45.036;38.924;2022-08-01T15:14:08;22.67;108.77
65122;HTU21D;51701;45.036;38.924;2022-08-01T15:16:52;22.61;108.94
65122;HTU21D;51701;45.036;38.924;2022-08-01T15:19:18;0.00;108.99
65122;HTU21D;51701;45.036;38.924;2022-08-01T15:21:44;22.92;109.47
65122;HTU21D;51701;45.036;38.924;2022-08-01T15:24:09;0.00;108.62
65122;HTU21D;51701;45.036;38.924;2022-08-01T15:26:35;23.61;107.98
65122;HTU21D;51701;45.036;38.924;2022-08-01T15:29:01;23.72;107.78
65122;HTU21D;51701;45.036;38.924;2022-08-01T15:31:27;23.72;107.91
65122;HTU21D;51701;45.036;38.924;2022-08-01T15:33:52;22.93;107.30
65122;HTU21D;51701;45.036;38.924;2022-08-01T15:36:18;0.00;106.87
65122;HTU21D;51701;45.036;38.924;2022-08-01T15:38:44;21.15;106.53
65122;HTU21D;51701;45.036;38.924;2022-08-01T15:41:10;0.00;109.68
65122;HTU21D;51701;45.036;38.924;2022-08-01T15:43:36;20.91;112.75
65122;HTU21D;51701;45.036;38.924;2022-08-01T15:46:01;21.73;115.38